sensor_id;sensor_type;location;lat;lon;timestamp;temperature;humidity
43015;DHT22;28637;50.554;7.032;2023-07-29T00:01:24;19.10;99.90
43015;DHT22;28637;50.554;7.032;2023-07-29T00:06:24;19.10;99.90
43015;DHT22;28637;50.554;7.032;2023-07-29T00:11:25;19.20;99.90
43015;DHT22;28637;50.554;7.032;2023-07-29T00:16:26;19.20;99.90
43015;DHT22;28637;50.554;7.032;2023-07-29T00:21:26;19.20;99.90
43015;DHT22;28637;50.554;7.032;2023-07-29T00:26:27;19.20;99.90
43015;DHT22;28637;50.554;7.032;2023-07-29T00:31:29;19.20;99.90
43015;DHT22;28637;50.554;7.032;2023-07-29T00:36:30;19.20;99.90
43015;DHT22;28637;50.554;7.032;2023-07-29T00:41:30;19.20;99.90
43015;DHT22;28637;50.554;7.032;2023-07-29T00:46:32;19.20;99.90
43015;DHT22;28637;50.554;7.032;2023-07-29T00:51:33;19.20;99.90
43015;DHT22;28637;50.554;7.032;2023-07-29T00:56:34;19.20;99.90
43015;DHT22;28637;50.554;7.032;2023-07-29T01:01:35;19.20;99.90
43015;DHT22;28637;50.554;7.032;2023-07-29T01:17:04;19.20;99.90
43015;DHT22;28637;50.554;7.032;2023-07-29T01:22:06;19.20;99.90
43015;DHT22;28637;50.554;7.032;2023-07-29T01:27:07;19.20;99.90
43015;DHT22;28637;50.554;7.032;2023-07-29T01:32:13;19.10;99.90
43015;DHT22;28637;50.554;7.032;2023-07-29T01:37:16;19.20;99.90
43015;DHT22;28637;50.554;7.032;2023-07-29T01:42:19;19.20;99.90
43015;DHT22;28637;50.554;7.032;2023-07-29T01:47:20;19.10;99.90
43015;DHT22;28637;50.554;7.032;2023-07-29T01:52:22;19.10;99.90
43015;DHT22;28637;50.554;7.032;2023-07-29T01:57:23;19.00;99.90
43015;DHT22;28637;50.554;7.032;2023-07-29T02:02:23;18.90;99.90
43015;DHT22;28637;50.554;7.032;2023-07-29T02:07:24;18.90;99.90
43015;DHT22;28637;50.554;7.032;2023-07-29T02:12:26;18.90;99.90
43015;DHT22;28637;50.554;7.032;2023-07-29T02:17:27;18.90;99.90
43015;DHT22;28637;50.554;7.032;2023-07-29T02:22:28;18.90;99.90
43015;DHT22;28637;50.554;7.032;2023-07-29T02:27:28;18.80;99.90
43015;DHT22;28637;50.554;7.032;2023-07-29T02:32:29;18.90;99.90
43015;DHT22;28637;50.554;7.032;2023-07-29T02:37:30;18.80;99.90
43015;DHT22;28637;50.554;7.032;2023-07-29T02:42:30;18.80;99.90
43015;DHT22;28637;50.554;7.032;2023-07-29T02:47:31;18.90;99.90
43015;DHT22;28637;50.554;7.032;2023-07-29T02:52:32;18.80;99.90
43015;DHT22;28637;50.554;7.032;2023-07-29T02:57:32;18.80;99.90
43015;DHT22;28637;50.554;7.032;2023-07-29T03:02:33;18.70;99.90
43015;DHT22;28637;50.554;7.032;2023-07-29T03:07:33;18.80;99.90
43015;DHT22;28637;50.554;7.032;2023-07-29T03:12:34;18.80;99.90
43015;DHT22;28637;50.554;7.032;2023-07-29T03:17:35;18.80;99.90
43015;DHT22;28637;50.554;7.032;2023-07-29T03:22:35;18.80;99.90
43015;DHT22;28637;50.554;7.032;2023-07-29T03:27:36;18.80;99.90
43015;DHT22;28637;50.554;7.032;2023-07-29T03:32:39;18.90;99.90
43015;DHT22;28637;50.554;7.032;2023-07-29T03:37:39;18.90;99.90
43015;DHT22;28637;50.554;7.032;2023-07-29T03:42:40;18.90;99.90
43015;DHT22;28637;50.554;7.032;2023-07-29T03:47:41;19.00;99.90
43015;DHT22;28637;50.554;7.032;2023-07-29T03:52:42;19.00;99.90
43015;DHT22;28637;50.554;7.032;2023-07-29T03:57:42;19.00;99.90
43015;DHT22;28637;50.554;7.032;2023-07-29T04:02:43;18.90;99.90
43015;DHT22;28637;50.554;7.032;2023-07-29T04:07:45;18.80;99.90
43015;DHT22;28637;50.554;7.032;2023-07-29T04:12:46;18.80;99.90
43015;DHT22;28637;50.554;7.032;2023-07-29T04:17:47;18.70;99.90
43015;DHT22;28637;50.554;7.032;2023-07-29T04:22:47;18.70;99.90
43015;DHT22;28637;50.554;7.032;2023-07-29T04:27:48;18.70;99.90
43015;DHT22;28637;50.554;7.032;2023-07-29T04:32:49;18.70;99.90
43015;DHT22;28637;50.554;7.032;2023-07-29T04:37:50;18.60;99.90
43015;DHT22;28637;50.554;7.032;2023-07-29T04:42:51;18.60;99.90
43015;DHT22;28637;50.554;7.032;2023-07-29T04:47:51;18.50;99.90
43015;DHT22;28637;50.554;7.032;2023-07-29T04:52:52;18.50;99.90
43015;DHT22;28637;50.554;7.032;2023-07-29T04:57:53;18.50;99.90
43015;DHT22;28637;50.554;7.032;2023-07-29T05:02:54;18.60;99.90
43015;DHT22;28637;50.554;7.032;2023-07-29T05:07:54;18.50;99.90
43015;DHT22;28637;50.554;7.032;2023-07-29T05:12:55;18.50;99.90
43015;DHT22;28637;50.554;7.032;2023-07-29T05:17:56;18.50;99.90
43015;DHT22;28637;50.554;7.032;2023-07-29T05:22:56;18.40;99.90
43015;DHT22;28637;50.554;7.032;2023-07-29T05:27:57;18.60;99.90
43015;DHT22;28637;50.554;7.032;2023-07-29T05:32:57;18.60;99.90
43015;DHT22;28637;50.554;7.032;2023-07-29T05:37:58;18.70;99.90
43015;DHT22;28637;50.554;7.032;2023-07-29T05:42:58;18.80;99.90
43015;DHT22;28637;50.554;7.032;2023-07-29T05:47:59;18.80;99.90
43015;DHT22;28637;50.554;7.032;2023-07-29T05:53:00;18.90;99.90
43015;DHT22;28637;50.554;7.032;2023-07-29T05:58:00;18.90;99.90
43015;DHT22;28637;50.554;7.032;2023-07-29T06:03:01;18.90;99.90
43015;DHT22;28637;50.554;7.032;2023-07-29T06:08:01;19.00;99.90
43015;DHT22;28637;50.554;7.032;2023-07-29T06:13:02;19.00;99.90
43015;DHT22;28637;50.554;7.032;2023-07-29T06:18:03;19.00;99.90
43015;DHT22;28637;50.554;7.032;2023-07-29T06:23:03;19.10;99.90
43015;DHT22;28637;50.554;7.032;2023-07-29T06:28:04;19.00;99.90
43015;DHT22;28637;50.554;7.032;2023-07-29T06:33:05;19.10;99.90
43015;DHT22;28637;50.554;7.032;2023-07-29T06:38:05;19.20;99.90
43015;DHT22;28637;50.554;7.032;2023-07-29T06:43:06;19.30;99.90
43015;DHT22;28637;50.554;7.032;2023-07-29T06:48:07;19.40;99.90
43015;DHT22;28637;50.554;7.032;2023-07-29T06:53:07;19.50;99.90
43015;DHT22;28637;50.554;7.032;2023-07-29T06:58:08;19.50;99.90
43015;DHT22;28637;50.554;7.032;2023-07-29T07:03:08;19.60;99.90
43015;DHT22;28637;50.554;7.032;2023-07-29T07:08:09;19.70;99.90
43015;DHT22;28637;50.554;7.032;2023-07-29T07:13:09;19.80;99.90
43015;DHT22;28637;50.554;7.032;2023-07-29T07:18:10;20.00;99.90
43015;DHT22;28637;50.554;7.032;2023-07-29T07:23:10;20.10;99.90
43015;DHT22;28637;50.554;7.032;2023-07-29T07:28:13;20.20;99.90
43015;DHT22;28637;50.554;7.032;2023-07-29T07:33:14;20.40;99.90
43015;DHT22;28637;50.554;7.032;2023-07-29T07:38:14;20.60;99.90
43015;DHT22;28637;50.554;7.032;2023-07-29T07:43:15;20.70;99.90
43015;DHT22;28637;50.554;7.032;2023-07-29T07:48:16;20.80;99.90
43015;DHT22;28637;50.554;7.032;2023-07-29T07:53:20;20.90;99.90
43015;DHT22;28637;50.554;7.032;2023-07-29T07:58:21;21.30;99.90
43015;DHT22;28637;50.554;7.032;2023-07-29T08:03:21;21.40;99.90
43015;DHT22;28637;50.554;7.032;2023-07-29T08:08:23;21.40;99.90
43015;DHT22;28637;50.554;7.032;2023-07-29T08:13:24;21.30;99.90
43015;DHT22;28637;50.554;7.032;2023-07-29T08:18:24;21.20;99.90
43015;DHT22;28637;50.554;7.032;2023-07-29T08:23:25;21.10;99.90
43015;DHT22;28637;50.554;7.032;2023-07-29T08:28:26;21.10;99.90
43015;DHT22;28637;50.554;7.032;2023-07-29T08:33:27;21.10;99.90
43015;DHT22;28637;50.554;7.032;2023-07-29T08:38:28;21.20;99.90
43015;DHT22;28637;50.554;7.032;2023-07-29T08:43:29;21.00;99.90
43015;DHT22;28637;50.554;7.032;2023-07-29T08:48:51;20.70;99.90
43015;DHT22;28637;50.554;7.032;2023-07-29T08:53:51;20.20;99.90
43015;DHT22;28637;50.554;7.032;2023-07-29T08:58:52;20.00;99.90
43015;DHT22;28637;50.554;7.032;2023-07-29T09:03:53;20.00;99.90
43015;DHT22;28637;50.554;7.032;2023-07-29T09:08:54;19.70;99.90
43015;DHT22;28637;50.554;7.032;2023-07-29T09:13:56;19.80;99.90
43015;DHT22;28637;50.554;7.032;2023-07-29T09:18:58;19.70;99.90
43015;DHT22;28637;50.554;7.032;2023-07-29T09:24:03;19.70;99.90
43015;DHT22;28637;50.554;7.032;2023-07-29T09:29:05;19.40;99.90
43015;DHT22;28637;50.554;7.032;2023-07-29T09:34:05;19.00;99.90
43015;DHT22;28637;50.554;7.032;2023-07-29T09:39:10;19.00;99.90
43015;DHT22;28637;50.554;7.032;2023-07-29T09:44:11;19.30;99.90
43015;DHT22;28637;50.554;7.032;2023-07-29T09:49:11;19.40;99.90
43015;DHT22;28637;50.554;7.032;2023-07-29T09:54:12;19.70;99.90
43015;DHT22;28637;50.554;7.032;2023-07-29T09:59:13;19.90;99.90
43015;DHT22;28637;50.554;7.032;2023-07-29T10:04:18;20.10;99.90
43015;DHT22;28637;50.554;7.032;2023-07-29T10:09:20;20.80;99.90
43015;DHT22;28637;50.554;7.032;2023-07-29T10:14:20;21.30;99.90
43015;DHT22;28637;50.554;7.032;2023-07-29T10:19:22;21.40;99.90
43015;DHT22;28637;50.554;7.032;2023-07-29T10:24:24;21.20;99.90
43015;DHT22;28637;50.554;7.032;2023-07-29T10:29:32;21.40;99.90
43015;DHT22;28637;50.554;7.032;2023-07-29T10:34:34;21.40;99.90
43015;DHT22;28637;50.554;7.032;2023-07-29T10:39:40;21.30;99.90
43015;DHT22;28637;50.554;7.032;2023-07-29T10:49:50;21.10;99.90
43015;DHT22;28637;50.554;7.032;2023-07-29T10:54:51;21.10;99.90
43015;DHT22;28637;50.554;7.032;2023-07-29T10:59:54;20.90;99.90
43015;DHT22;28637;50.554;7.032;2023-07-29T11:04:56;20.70;99.90
43015;DHT22;28637;50.554;7.032;2023-07-29T11:09:58;20.60;99.90
43015;DHT22;28637;50.554;7.032;2023-07-29T11:20:15;20.40;99.90
43015;DHT22;28637;50.554;7.032;2023-07-29T11:25:17;20.20;99.90
43015;DHT22;28637;50.554;7.032;2023-07-29T11:30:17;20.00;99.90
43015;DHT22;28637;50.554;7.032;2023-07-29T11:35:18;20.00;99.90
43015;DHT22;28637;50.554;7.032;2023-07-29T11:40:20;20.10;99.90
43015;DHT22;28637;50.554;7.032;2023-07-29T11:45:22;20.20;99.90
43015;DHT22;28637;50.554;7.032;2023-07-29T11:50:23;20.40;99.90
43015;DHT22;28637;50.554;7.032;2023-07-29T11:55:24;20.70;99.90
43015;DHT22;28637;50.554;7.032;2023-07-29T12:00:25;21.20;99.90
43015;DHT22;28637;50.554;7.032;2023-07-29T12:05:26;21.50;99.90
43015;DHT22;28637;50.554;7.032;2023-07-29T12:10:27;21.70;99.90
43015;DHT22;28637;50.554;7.032;2023-07-29T12:15:28;22.30;99.90
43015;DHT22;28637;50.554;7.032;2023-07-29T12:20:29;22.90;99.90
43015;DHT22;28637;50.554;7.032;2023-07-29T12:25:30;23.50;99.90
43015;DHT22;28637;50.554;7.032;2023-07-29T12:30:31;23.80;99.90
43015;DHT22;28637;50.554;7.032;2023-07-29T12:35:36;24.10;99.90
43015;DHT22;28637;50.554;7.032;2023-07-29T12:40:38;24.20;99.90
43015;DHT22;28637;50.554;7.032;2023-07-29T12:45:38;24.80;99.90
43015;DHT22;28637;50.554;7.032;2023-07-29T12:50:42;25.00;99.90
43015;DHT22;28637;50.554;7.032;2023-07-29T12:55:43;25.10;99.90
43015;DHT22;28637;50.554;7.032;2023-07-29T13:00:43;25.00;99.90
43015;DHT22;28637;50.554;7.032;2023-07-29T13:05:44;24.80;99.90
43015;DHT22;28637;50.554;7.032;2023-07-29T13:10:44;25.30;99.90
43015;DHT22;28637;50.554;7.032;2023-07-29T13:15:45;25.60;99.90
43015;DHT22;28637;50.554;7.032;2023-07-29T13:20:45;25.30;99.90
43015;DHT22;28637;50.554;7.032;2023-07-29T13:25:46;24.80;99.90
43015;DHT22;28637;50.554;7.032;2023-07-29T13:30:46;24.40;99.90
43015;DHT22;28637;50.554;7.032;2023-07-29T13:35:47;24.10;99.90
43015;DHT22;28637;50.554;7.032;2023-07-29T13:40:48;23.90;99.90
43015;DHT22;28637;50.554;7.032;2023-07-29T13:45:51;23.90;99.90
43015;DHT22;28637;50.554;7.032;2023-07-29T13:50:51;23.90;99.90
43015;DHT22;28637;50.554;7.032;2023-07-29T13:55:52;23.70;99.90
43015;DHT22;28637;50.554;7.032;2023-07-29T14:00:53;23.90;99.90
43015;DHT22;28637;50.554;7.032;2023-07-29T14:05:53;24.30;99.90
43015;DHT22;28637;50.554;7.032;2023-07-29T14:10:54;24.30;99.90
43015;DHT22;28637;50.554;7.032;2023-07-29T14:15:54;24.20;99.90
43015;DHT22;28637;50.554;7.032;2023-07-29T14:20:55;24.50;99.90
43015;DHT22;28637;50.554;7.032;2023-07-29T14:25:55;25.00;99.90
43015;DHT22;28637;50.554;7.032;2023-07-29T14:30:56;25.10;99.90
43015;DHT22;28637;50.554;7.032;2023-07-29T14:35:56;24.60;99.90
43015;DHT22;28637;50.554;7.032;2023-07-29T14:40:57;24.30;99.90
43015;DHT22;28637;50.554;7.032;2023-07-29T14:45:58;24.30;99.90
43015;DHT22;28637;50.554;7.032;2023-07-29T14:50:58;24.30;99.90
43015;DHT22;28637;50.554;7.032;2023-07-29T14:55:59;24.60;99.90
43015;DHT22;28637;50.554;7.032;2023-07-29T15:01:00;24.90;99.90
43015;DHT22;28637;50.554;7.032;2023-07-29T15:06:00;25.10;99.90
43015;DHT22;28637;50.554;7.032;2023-07-29T15:11:01;24.80;99.90
43015;DHT22;28637;50.554;7.032;2023-07-29T15:16:02;24.60;99.90
43015;DHT22;28637;50.554;7.032;2023-07-29T15:21:02;24.40;99.90
43015;DHT22;28637;50.554;7.032;2023-07-29T15:26:03;24.80;99.90
43015;DHT22;28637;50.554;7.032;2023-07-29T15:31:04;24.70;99.90
43015;DHT22;28637;50.554;7.032;2023-07-29T15:36:04;24.20;99.90
43015;DHT22;28637;50.554;7.032;2023-07-29T15:41:05;24.40;99.90
43015;DHT22;28637;50.554;7.032;2023-07-29T15:46:05;24.00;99.90
43015;DHT22;28637;50.554;7.032;2023-07-29T15:51:06;23.50;99.90
43015;DHT22;28637;50.554;7.032;2023-07-29T15:56:08;23.00;99.90
43015;DHT22;28637;50.554;7.032;2023-07-29T16:01:09;22.70;99.90
43015;DHT22;28637;50.554;7.032;2023-07-29T16:06:09;22.50;99.90
43015;DHT22;28637;50.554;7.032;2023-07-29T16:11:10;22.40;99.90
43015;DHT22;28637;50.554;7.032;2023-07-29T16:16:10;22.20;99.90
43015;DHT22;28637;50.554;7.032;2023-07-29T16:21:11;22.10;99.90
43015;DHT22;28637;50.554;7.032;2023-07-29T16:26:11;21.80;99.90
43015;DHT22;28637;50.554;7.032;2023-07-29T16:31:13;21.60;99.90
43015;DHT22;28637;50.554;7.032;2023-07-29T16:36:14;21.40;99.90
43015;DHT22;28637;50.554;7.032;2023-07-29T16:41:14;21.10;99.90
43015;DHT22;28637;50.554;7.032;2023-07-29T16:46:15;21.00;99.90
43015;DHT22;28637;50.554;7.032;2023-07-29T16:51:15;21.00;99.90
43015;DHT22;28637;50.554;7.032;2023-07-29T16:56:16;20.90;99.90
43015;DHT22;28637;50.554;7.032;2023-07-29T17:01:16;20.80;99.90
43015;DHT22;28637;50.554;7.032;2023-07-29T17:06:17;21.30;99.90
43015;DHT22;28637;50.554;7.032;2023-07-29T17:11:17;21.90;99.90
43015;DHT22;28637;50.554;7.032;2023-07-29T17:16:18;22.30;99.90
43015;DHT22;28637;50.554;7.032;2023-07-29T17:21:18;22.30;99.90
43015;DHT22;28637;50.554;7.032;2023-07-29T17:26:19;22.20;99.90
43015;DHT22;28637;50.554;7.032;2023-07-29T17:31:20;21.80;99.90
43015;DHT22;28637;50.554;7.032;2023-07-29T17:36:20;21.40;99.90
43015;DHT22;28637;50.554;7.032;2023-07-29T17:41:21;21.30;99.90
43015;DHT22;28637;50.554;7.032;2023-07-29T17:46:21;21.50;99.90
43015;DHT22;28637;50.554;7.032;2023-07-29T17:51:23;21.70;99.90
43015;DHT22;28637;50.554;7.032;2023-07-29T17:56:24;21.70;99.90
43015;DHT22;28637;50.554;7.032;2023-07-29T18:01:26;21.90;99.90
43015;DHT22;28637;50.554;7.032;2023-07-29T18:06:27;21.80;99.90
43015;DHT22;28637;50.554;7.032;2023-07-29T18:11:27;21.80;99.90
43015;DHT22;28637;50.554;7.032;2023-07-29T18:16:28;21.70;99.90
43015;DHT22;28637;50.554;7.032;2023-07-29T18:21:28;21.60;99.90
43015;DHT22;28637;50.554;7.032;2023-07-29T18:26:29;21.50;99.90
43015;DHT22;28637;50.554;7.032;2023-07-29T18:31:30;21.30;99.90
43015;DHT22;28637;50.554;7.032;2023-07-29T18:36:32;20.80;99.90
43015;DHT22;28637;50.554;7.032;2023-07-29T18:41:34;20.70;99.90
43015;DHT22;28637;50.554;7.032;2023-07-29T18:46:34;20.30;99.90
43015;DHT22;28637;50.554;7.032;2023-07-29T18:51:35;20.20;99.90
43015;DHT22;28637;50.554;7.032;2023-07-29T18:56:40;20.00;99.90
43015;DHT22;28637;50.554;7.032;2023-07-29T19:01:40;19.90;99.90
43015;DHT22;28637;50.554;7.032;2023-07-29T19:06:41;19.70;99.90
43015;DHT22;28637;50.554;7.032;2023-07-29T19:11:42;19.60;99.90
43015;DHT22;28637;50.554;7.032;2023-07-29T19:16:43;19.60;99.90
43015;DHT22;28637;50.554;7.032;2023-07-29T19:21:43;19.50;99.90
43015;DHT22;28637;50.554;7.032;2023-07-29T19:26:44;19.50;99.90
43015;DHT22;28637;50.554;7.032;2023-07-29T19:31:44;19.50;99.90
43015;DHT22;28637;50.554;7.032;2023-07-29T19:36:45;19.50;99.90
43015;DHT22;28637;50.554;7.032;2023-07-29T19:41:45;19.50;99.90
43015;DHT22;28637;50.554;7.032;2023-07-29T19:46:46;19.30;99.90
43015;DHT22;28637;50.554;7.032;2023-07-29T19:51:46;19.10;99.90
43015;DHT22;28637;50.554;7.032;2023-07-29T19:56:47;19.10;99.90
43015;DHT22;28637;50.554;7.032;2023-07-29T20:01:47;19.10;99.90
43015;DHT22;28637;50.554;7.032;2023-07-29T20:06:48;19.00;99.90
43015;DHT22;28637;50.554;7.032;2023-07-29T20:11:53;19.00;99.90
43015;DHT22;28637;50.554;7.032;2023-07-29T20:16:53;18.90;99.90
43015;DHT22;28637;50.554;7.032;2023-07-29T20:21:54;18.80;99.90
43015;DHT22;28637;50.554;7.032;2023-07-29T20:26:55;18.70;99.90
43015;DHT22;28637;50.554;7.032;2023-07-29T20:31:55;18.60;99.90
43015;DHT22;28637;50.554;7.032;2023-07-29T20:36:56;18.60;99.90
43015;DHT22;28637;50.554;7.032;2023-07-29T20:41:56;18.40;99.90
43015;DHT22;28637;50.554;7.032;2023-07-29T20:46:57;18.20;99.90
43015;DHT22;28637;50.554;7.032;2023-07-29T20:51:57;18.20;99.90
43015;DHT22;28637;50.554;7.032;2023-07-29T20:56:58;18.10;99.90
43015;DHT22;28637;50.554;7.032;2023-07-29T21:01:58;17.90;99.90
43015;DHT22;28637;50.554;7.032;2023-07-29T21:06:59;17.90;99.90
43015;DHT22;28637;50.554;7.032;2023-07-29T21:12:00;17.90;99.90
43015;DHT22;28637;50.554;7.032;2023-07-29T21:17:01;17.80;99.90
43015;DHT22;28637;50.554;7.032;2023-07-29T21:22:01;17.70;99.90
43015;DHT22;28637;50.554;7.032;2023-07-29T21:27:02;17.60;99.90
43015;DHT22;28637;50.554;7.032;2023-07-29T21:32:03;17.60;99.90
43015;DHT22;28637;50.554;7.032;2023-07-29T21:37:03;17.60;99.90
43015;DHT22;28637;50.554;7.032;2023-07-29T21:42:04;17.60;99.90
43015;DHT22;28637;50.554;7.032;2023-07-29T21:47:05;17.50;99.90
43015;DHT22;28637;50.554;7.032;2023-07-29T21:52:06;17.60;99.90
43015;DHT22;28637;50.554;7.032;2023-07-29T21:57:06;17.60;99.90
43015;DHT22;28637;50.554;7.032;2023-07-29T22:02:07;17.50;99.90
43015;DHT22;28637;50.554;7.032;2023-07-29T22:07:07;17.40;99.90
43015;DHT22;28637;50.554;7.032;2023-07-29T22:12:08;17.50;99.90
43015;DHT22;28637;50.554;7.032;2023-07-29T22:17:09;17.30;99.90
43015;DHT22;28637;50.554;7.032;2023-07-29T22:22:09;17.30;99.90
43015;DHT22;28637;50.554;7.032;2023-07-29T22:27:10;17.20;99.90
43015;DHT22;28637;50.554;7.032;2023-07-29T22:32:10;17.00;99.90
43015;DHT22;28637;50.554;7.032;2023-07-29T22:37:11;16.90;99.90
43015;DHT22;28637;50.554;7.032;2023-07-29T22:42:11;16.80;99.90
43015;DHT22;28637;50.554;7.032;2023-07-29T22:47:12;16.70;99.90
43015;DHT22;28637;50.554;7.032;2023-07-29T22:52:13;16.80;99.90
43015;DHT22;28637;50.554;7.032;2023-07-29T22:57:13;16.80;99.90
43015;DHT22;28637;50.554;7.032;2023-07-29T23:02:14;16.60;99.90
43015;DHT22;28637;50.554;7.032;2023-07-29T23:07:15;16.60;99.90
43015;DHT22;28637;50.554;7.032;2023-07-29T23:12:15;16.70;99.90
43015;DHT22;28637;50.554;7.032;2023-07-29T23:17:16;16.80;99.90
43015;DHT22;28637;50.554;7.032;2023-07-29T23:22:16;16.80;99.90
43015;DHT22;28637;50.554;7.032;2023-07-29T23:27:17;16.70;99.90
43015;DHT22;28637;50.554;7.032;2023-07-29T23:32:18;16.60;99.90
43015;DHT22;28637;50.554;7.032;2023-07-29T23:37:18;16.60;99.90
43015;DHT22;28637;50.554;7.032;2023-07-29T23:42:19;16.50;99.90
43015;DHT22;28637;50.554;7.032;2023-07-29T23:47:19;16.50;99.90
43015;DHT22;28637;50.554;7.032;2023-07-29T23:52:20;16.40;99.90
43015;DHT22;28637;50.554;7.032;2023-07-29T23:57:20;16.30;99.90
